Time;durP1;ratioP1;P1;durP2;ratioP2;P2;SDS_P1;SDS_P2;PMS_P1;PMS_P2;Temp;Humidity;BMP_temperature;BMP_pressure;BME280_temperature;BME280_humidity;BME280_pressure;Samples;Min_cycle;Max_cycle;Signal;HPM_P1;HPM_P2
2024/01/21 00:01:01;;;;;;;119.60;53.57;;;;;;;-4.02;85.14;101744.88;3171311;22;20262;-75
2024/01/21 00:02:21;;;;;;;111.67;57.13;;;;;;;-4.02;85.15;101739.78;3171254;22;20262;-74
2024/01/21 00:03:35;;;;;;;109.13;55.10;;;;;;;-4.02;85.08;101731.25;3171332;22;20261;-75
2024/01/21 00:04:49;;;;;;;113.27;54.63;;;;;;;-4.00;85.18;101735.66;3170833;22;20248;-75
2024/01/21 00:06:03;;;;;;;128.30;53.30;;;;;;;-4.01;85.21;101728.78;3171089;22;20280;-77
2024/01/21 00:07:17;;;;;;;135.00;58.17;;;;;;;-4.05;85.16;101734.47;3170999;22;20023;-75
2024/01/21 00:08:31;;;;;;;124.43;49.10;;;;;;;-4.09;85.01;101737.59;3170093;22;20260;-75
2024/01/21 00:09:44;;;;;;;121.30;55.73;;;;;;;-4.08;85.04;101735.91;3171174;22;20023;-75
2024/01/21 00:10:59;;;;;;;115.27;51.43;;;;;;;-4.07;84.76;101730.94;3171357;22;20732;-75
2024/01/21 00:12:12;;;;;;;116.03;54.20;;;;;;;-4.07;84.96;101722.41;3170601;22;20019;-75
2024/01/21 00:13:27;;;;;;;101.47;55.07;;;;;;;-4.06;84.83;101726.72;3171500;22;20271;-75
2024/01/21 00:14:40;;;;;;;116.50;52.07;;;;;;;-4.05;85.15;101731.94;3171157;22;20026;-74
2024/01/21 00:15:56;;;;;;;113.90;54.07;;;;;;;-4.03;85.45;101732.00;3170549;22;20262;-75
2024/01/21 00:17:10;;;;;;;127.40;53.63;;;;;;;-4.02;85.43;101718.50;3170887;22;20358;-75
2024/01/21 00:18:24;;;;;;;116.43;50.17;;;;;;;-4.05;85.08;101721.72;3170947;22;20257;-75
2024/01/21 00:19:39;;;;;;;115.60;54.43;;;;;;;-4.04;85.35;101720.06;3170582;22;20030;-75
2024/01/21 00:20:54;;;;;;;115.43;55.73;;;;;;;-4.05;85.21;101723.38;3171279;22;20261;-75
2024/01/21 00:22:07;;;;;;;110.20;55.70;;;;;;;-4.06;84.95;101717.38;3171210;22;20257;-74
2024/01/21 00:23:21;;;;;;;128.03;60.83;;;;;;;-4.05;84.96;101718.28;3171432;22;20272;-74
2024/01/21 00:24:35;;;;;;;115.37;52.50;;;;;;;-4.06;84.74;101709.75;3170476;22;20019;-74
2024/01/21 00:25:49;;;;;;;126.00;54.73;;;;;;;-4.05;85.41;101705.53;3171148;22;20269;-75
2024/01/21 00:27:03;;;;;;;115.07;50.87;;;;;;;-4.07;84.77;101702.88;3170298;22;20462;-74
2024/01/21 00:28:17;;;;;;;124.60;55.93;;;;;;;-4.08;85.00;101698.59;3170365;22;20257;-74
2024/01/21 00:29:31;;;;;;;123.73;54.93;;;;;;;-4.11;84.70;101698.34;3170709;22;20030;-75
2024/01/21 00:30:45;;;;;;;117.30;56.17;;;;;;;-4.18;85.17;101701.28;3171128;22;20261;-75
2024/01/21 00:32:00;;;;;;;122.33;53.40;;;;;;;-4.22;84.92;101706.94;3170803;22;20019;-74
2024/01/21 00:33:14;;;;;;;128.50;58.30;;;;;;;-4.21;85.37;101699.41;3171052;22;20358;-74
2024/01/21 00:34:28;;;;;;;131.07;54.80;;;;;;;-4.18;84.97;101697.06;3171238;22;20268;-74
2024/01/21 00:35:42;;;;;;;125.80;57.70;;;;;;;-4.16;85.03;101694.59;3170419;22;20307;-74
2024/01/21 00:36:56;;;;;;;116.87;54.87;;;;;;;-4.17;85.36;101692.84;3170737;22;20027;-75
2024/01/21 00:38:11;;;;;;;138.50;54.93;;;;;;;-4.21;85.21;101683.22;3170990;22;20340;-75
2024/01/21 00:39:24;;;;;;;106.90;51.73;;;;;;;-4.23;85.34;101683.13;3171519;22;20027;-76
2024/01/21 00:40:38;;;;;;;113.73;49.87;;;;;;;-4.23;84.96;101678.03;3170497;22;20744;-75
2024/01/21 00:41:52;;;;;;;130.13;52.83;;;;;;;-4.21;84.87;101678.13;3171208;22;20023;-75
2024/01/21 00:43:06;;;;;;;142.13;55.40;;;;;;;-4.22;85.26;101673.81;3171284;22;20268;-76
2024/01/21 00:44:20;;;;;;;114.10;52.67;;;;;;;-4.21;85.01;101675.56;3169472;22;20026;-75
2024/01/21 00:45:34;;;;;;;100.00;52.20;;;;;;;-4.21;84.93;101676.47;3171210;22;20268;-74
2024/01/21 00:46:47;;;;;;;110.83;54.13;;;;;;;-4.18;84.91;101683.44;3170585;22;20019;-74
2024/01/21 00:48:04;;;;;;;122.07;52.17;;;;;;;-4.13;84.75;101677.00;3170645;22;20256;-74
2024/01/21 00:49:17;;;;;;;122.53;51.33;;;;;;;-4.13;85.31;101679.53;3171377;22;20027;-74
2024/01/21 00:50:31;;;;;;;118.77;51.20;;;;;;;-4.09;85.08;101678.06;3170857;22;20269;-76
2024/01/21 00:51:45;;;;;;;111.73;55.60;;;;;;;-4.10;84.83;101687.38;3170867;22;20687;-75
2024/01/21 00:53:00;;;;;;;120.50;50.67;;;;;;;-4.10;85.34;101681.41;3171390;22;20272;-75
2024/01/21 00:54:13;;;;;;;111.17;50.10;;;;;;;-4.08;85.26;101685.84;3170805;22;20027;-74
2024/01/21 00:55:28;;;;;;;113.03;50.77;;;;;;;-4.05;84.91;101677.47;3170937;22;20271;-75
2024/01/21 00:56:41;;;;;;;98.87;47.20;;;;;;;-4.02;84.82;101683.69;3170102;22;20030;-75
2024/01/21 00:57:55;;;;;;;104.67;51.13;;;;;;;-4.00;85.22;101678.66;3171076;22;20265;-75
2024/01/21 00:59:09;;;;;;;108.93;51.63;;;;;;;-3.98;85.32;101670.34;3171080;22;20030;-75
2024/01/21 01:00:25;;;;;;;99.63;47.83;;;;;;;-3.96;85.31;101667.91;3169941;22;21076;-74
2024/01/21 01:01:39;;;;;;;108.67;42.93;;;;;;;-3.97;84.80;101671.25;3170268;22;20026;-75
2024/01/21 01:02:54;;;;;;;100.83;48.47;;;;;;;-4.02;85.02;101660.72;3170788;22;20643;-76
2024/01/21 01:04:09;;;;;;;99.17;49.03;;;;;;;-4.06;84.70;101661.31;3170316;22;20249;-75
2024/01/21 01:05:24;;;;;;;102.77;45.80;;;;;;;-4.09;84.70;101657.69;3171249;22;20266;-75
2024/01/21 01:06:37;;;;;;;96.07;46.80;;;;;;;-4.09;84.78;101655.13;3170328;22;20253;-76
2024/01/21 01:07:51;;;;;;;92.47;43.67;;;;;;;-4.07;84.97;101662.09;3170642;22;20272;-75
2024/01/21 01:09:05;;;;;;;104.13;47.67;;;;;;;-4.06;84.70;101657.88;3171042;22;20023;-75
2024/01/21 01:10:19;;;;;;;106.93;46.03;;;;;;;-4.07;84.69;101659.53;3170938;22;20744;-74
2024/01/21 01:11:33;;;;;;;109.10;49.70;;;;;;;-4.04;84.87;101657.19;3170997;22;20577;-74
2024/01/21 01:12:48;;;;;;;106.57;47.97;;;;;;;-4.00;85.03;101663.38;3170154;22;20254;-76
2024/01/21 01:14:02;;;;;;;97.80;46.33;;;;;;;-3.98;84.95;101652.47;3170989;22;20023;-75
2024/01/21 01:15:18;;;;;;;99.00;45.83;;;;;;;-3.94;84.91;101653.59;3170626;22;20284;-75
2024/01/21 01:16:36;;;;;;;104.80;46.10;;;;;;;-3.91;85.38;101652.91;3169924;22;20341;-75
2024/01/21 01:17:51;;;;;;;100.70;46.63;;;;;;;-3.91;84.79;101648.69;3170805;22;20288;-75
2024/01/21 01:19:05;;;;;;;99.83;44.63;;;;;;;-3.95;84.70;101642.50;3170296;22;20254;-74
2024/01/21 01:20:21;;;;;;;101.87;46.03;;;;;;;-3.97;84.72;101638.97;3170166;22;20308;-74
2024/01/21 01:21:34;;;;;;;93.07;42.67;;;;;;;-3.98;84.52;101639.75;3170538;22;20253;-75
2024/01/21 01:22:49;;;;;;;81.17;41.63;;;;;;;-3.99;85.13;101645.63;3171166;22;20265;-75
2024/01/21 01:24:02;;;;;;;107.87;46.10;;;;;;;-3.98;84.72;101654.16;3170459;22;20030;-75
2024/01/21 01:25:17;;;;;;;94.70;38.63;;;;;;;-3.99;85.00;101648.19;3170728;22;20344;-74
2024/01/21 01:26:30;;;;;;;106.03;43.40;;;;;;;-4.02;84.88;101642.88;3170849;22;20027;-74
2024/01/21 01:27:44;;;;;;;101.43;45.10;;;;;;;-4.05;84.87;101645.25;3169915;22;20737;-75
2024/01/21 01:28:58;;;;;;;108.57;47.20;;;;;;;-4.06;84.85;101648.56;3170681;22;20019;-74
2024/01/21 01:30:12;;;;;;;108.63;45.67;;;;;;;-4.10;84.51;101648.28;3170762;22;20604;-76
2024/01/21 01:31:26;;;;;;;92.73;40.13;;;;;;;-4.14;84.55;101642.06;3171025;22;20026;-75
2024/01/21 01:32:40;;;;;;;96.93;42.40;;;;;;;-4.16;84.36;101646.16;3170678;22;20264;-74
2024/01/21 01:33:53;;;;;;;99.63;46.57;;;;;;;-4.14;84.50;101648.84;3170400;22;20023;-75
2024/01/21 01:35:08;;;;;;;87.37;39.83;;;;;;;-4.13;84.55;101653.13;3170582;22;20272;-75
2024/01/21 01:36:23;;;;;;;95.43;47.37;;;;;;;-4.12;85.13;101654.94;3169850;22;20015;-75
2024/01/21 01:37:37;;;;;;;91.03;40.10;;;;;;;-4.08;84.69;101655.25;3170684;22;20293;-75
2024/01/21 01:38:51;;;;;;;108.57;44.43;;;;;;;-4.07;85.01;101653.56;3171198;22;20250;-75
2024/01/21 01:40:07;;;;;;;89.60;39.33;;;;;;;-4.05;85.01;101650.34;3169986;22;20320;-75
2024/01/21 01:41:20;;;;;;;86.40;39.47;;;;;;;-4.03;85.12;101656.41;3171111;22;20019;-75
2024/01/21 01:42:35;;;;;;;91.77;40.87;;;;;;;-4.01;84.74;101654.84;3170796;22;20628;-74
2024/01/21 01:43:48;;;;;;;87.27;41.37;;;;;;;-4.02;84.74;101653.09;3170017;22;20026;-74
2024/01/21 01:45:03;;;;;;;89.83;43.57;;;;;;;-4.01;84.72;101644.63;3171096;22;20759;-75
2024/01/21 01:46:16;;;;;;;92.43;40.60;;;;;;;-4.02;84.74;101642.88;3170799;22;20027;-75
2024/01/21 01:47:31;;;;;;;86.97;40.67;;;;;;;-4.03;84.95;101643.66;3170606;22;20261;-75
2024/01/21 01:48:44;;;;;;;85.20;40.00;;;;;;;-4.04;84.96;101644.44;3170168;22;20023;-75
2024/01/21 01:49:59;;;;;;;93.10;44.90;;;;;;;-4.04;84.45;101639.34;3171047;22;20267;-74
2024/01/21 01:51:12;;;;;;;83.13;39.30;;;;;;;-4.06;84.94;101640.91;3170215;22;20046;-75
2024/01/21 01:52:28;;;;;;;93.27;41.23;;;;;;;-4.05;84.85;101644.34;3170106;22;21042;-74
2024/01/21 01:53:42;;;;;;;81.03;37.77;;;;;;;-4.06;84.83;101645.13;3170832;22;20026;-74
2024/01/21 01:54:56;;;;;;;85.63;38.43;;;;;;;-4.06;84.86;101642.56;3170857;22;20725;-75
2024/01/21 01:56:11;;;;;;;86.00;39.23;;;;;;;-4.06;84.54;101645.13;3170178;22;20019;-75
2024/01/21 01:57:26;;;;;;;79.70;35.33;;;;;;;-4.05;84.46;101646.88;3170440;22;20258;-74
2024/01/21 01:58:40;;;;;;;79.10;38.63;;;;;;;-4.07;84.89;101651.91;3170990;22;20708;-75
2024/01/21 01:59:55;;;;;;;80.13;36.73;;;;;;;-4.11;84.65;101639.72;3170105;22;20655;-75
2024/01/21 02:01:08;;;;;;;100.77;37.73;;;;;;;-4.16;84.38;101648.72;3170797;22;20257;-74
2024/01/21 02:02:23;;;;;;;66.87;34.17;;;;;;;-4.20;84.19;101641.66;3171065;22;20732;-76
2024/01/21 02:03:36;;;;;;;78.97;35.60;;;;;;;-4.20;84.70;101634.03;3170215;22;20454;-75
2024/01/21 02:04:51;;;;;;;90.03;38.30;;;;;;;-4.21;84.99;101635.69;3170731;22;20269;-76
2024/01/21 02:06:06;;;;;;;78.73;37.67;;;;;;;-4.23;84.28;101623.63;3170539;22;20459;-75
2024/01/21 02:07:20;;;;;;;79.97;36.10;;;;;;;-4.22;84.54;101636.47;3170599;22;20624;-75
2024/01/21 02:08:35;;;;;;;73.30;33.57;;;;;;;-4.23;84.64;101637.25;3170384;22;20261;-75
2024/01/21 02:09:49;;;;;;;79.33;34.37;;;;;;;-4.30;84.41;101636.75;3170518;22;20261;-75
2024/01/21 02:11:03;;;;;;;90.13;34.67;;;;;;;-4.38;84.07;101639.66;3170295;22;20386;-75
2024/01/21 02:12:19;;;;;;;76.33;30.50;;;;;;;-4.47;84.13;101638.13;3170365;22;20249;-74
2024/01/21 02:13:32;;;;;;;80.33;36.10;;;;;;;-4.53;84.19;101643.72;3172165;22;20261;-75
2024/01/21 02:14:47;;;;;;;81.20;34.53;;;;;;;-4.56;84.29;101648.59;3171988;22;20261;-74
2024/01/21 02:16:00;;;;;;;77.77;33.33;;;;;;;-4.56;84.01;101645.19;3172897;22;20020;-74
2024/01/21 02:17:14;;;;;;;81.07;36.20;;;;;;;-4.55;84.00;101649.47;3174104;22;20979;-74
2024/01/21 02:18:28;;;;;;;99.33;34.37;;;;;;;-4.54;84.41;101652.16;3172547;22;20023;-75
2024/01/21 02:19:42;;;;;;;82.80;33.10;;;;;;;-4.54;84.27;101649.59;3173248;22;20358;-75
2024/01/21 02:20:56;;;;;;;99.30;35.40;;;;;;;-4.53;84.30;101646.25;3174293;22;20023;-75
2024/01/21 02:22:10;;;;;;;86.20;36.07;;;;;;;-4.52;84.62;101632.72;3174308;22;20268;-76
2024/01/21 02:23:25;;;;;;;90.13;34.73;;;;;;;-4.51;84.21;101639.59;3173600;22;20581;-75
2024/01/21 02:24:39;;;;;;;105.40;40.90;;;;;;;-4.51;84.03;101634.50;3172971;22;20238;-76
2024/01/21 02:25:53;;;;;;;75.73;32.70;;;;;;;-4.53;84.42;101637.72;3174291;22;20261;-75
2024/01/21 02:27:07;;;;;;;68.70;31.47;;;;;;;-4.56;84.52;101634.97;3174085;22;20261;-74
2024/01/21 02:28:20;;;;;;;78.57;34.10;;;;;;;-4.57;84.41;101638.28;3173685;22;20016;-75
2024/01/21 02:29:35;;;;;;;76.70;36.57;;;;;;;-4.57;84.44;101648.47;3174253;22;20269;-74
2024/01/21 02:30:48;;;;;;;77.73;32.37;;;;;;;-4.60;84.13;101650.03;3174510;22;20023;-75
2024/01/21 02:32:03;;;;;;;90.30;36.07;;;;;;;-4.61;84.45;101655.03;3173847;22;20246;-75
2024/01/21 02:33:17;;;;;;;104.20;37.47;;;;;;;-4.62;84.29;101640.53;3174374;22;20030;-75
2024/01/21 02:34:31;;;;;;;77.50;34.47;;;;;;;-4.64;84.41;101647.19;3173590;22;20265;-75
2024/01/21 02:35:45;;;;;;;79.87;33.83;;;;;;;-4.63;84.11;101651.50;3173691;22;20023;-75
2024/01/21 02:36:59;;;;;;;76.00;32.97;;;;;;;-4.64;84.35;101642.09;3173962;22;20291;-74
2024/01/21 02:38:13;;;;;;;81.17;36.70;;;;;;;-4.65;84.37;101642.88;3174363;22;20019;-74
2024/01/21 02:39:28;;;;;;;82.27;35.43;;;;;;;-4.64;84.38;101642.97;3174377;22;20869;-76
2024/01/21 02:40:42;;;;;;;87.50;36.63;;;;;;;-4.62;84.35;101638.88;3173581;22;20109;-75
2024/01/21 02:41:56;;;;;;;105.97;37.17;;;;;;;-4.64;84.12;101642.97;3174412;22;20262;-75
2024/01/21 02:43:09;;;;;;;89.43;37.33;;;;;;;-4.65;84.14;101640.31;3174310;22;20411;-75
2024/01/21 02:44:24;;;;;;;84.70;34.70;;;;;;;-4.65;84.44;101636.09;3173478;22;20256;-75
2024/01/21 02:45:37;;;;;;;73.77;36.13;;;;;;;-4.63;84.13;101633.66;3174221;22;20026;-75
2024/01/21 02:46:52;;;;;;;93.23;40.53;;;;;;;-4.61;84.14;101637.22;3174005;22;20265;-74
2024/01/21 02:48:06;;;;;;;81.13;35.53;;;;;;;-4.60;84.47;101639.84;3173507;22;20023;-76
2024/01/21 02:49:23;;;;;;;85.50;36.30;;;;;;;-4.59;84.22;101635.66;3174265;22;20280;-75
2024/01/21 02:50:37;;;;;;;72.40;36.80;;;;;;;-4.58;84.03;101636.53;3174251;22;20095;-75
2024/01/21 02:51:51;;;;;;;86.80;34.00;;;;;;;-4.57;84.59;101633.19;3173407;22;20597;-75
2024/01/21 02:53:04;;;;;;;86.67;31.90;;;;;;;-4.57;84.43;101623.88;3173790;22;20023;-75
2024/01/21 02:54:19;;;;;;;84.70;35.67;;;;;;;-4.57;84.43;101620.47;3173514;22;20261;-75
2024/01/21 02:55:34;;;;;;;81.53;35.53;;;;;;;-4.60;84.02;101616.91;3173937;22;20473;-75
2024/01/21 02:56:48;;;;;;;81.73;34.17;;;;;;;-4.63;84.19;101613.28;3172973;22;20333;-75
2024/01/21 02:58:02;;;;;;;81.47;37.10;;;;;;;-4.65;84.21;101623.38;3174166;22;20254;-76
2024/01/21 02:59:16;;;;;;;90.17;36.60;;;;;;;-4.64;84.35;101624.28;3173826;22;20258;-75
2024/01/21 03:00:36;;;;;;;88.50;35.13;;;;;;;-4.64;84.35;101627.69;3173409;22;20454;-75
2024/01/21 03:01:50;;;;;;;84.37;37.10;;;;;;;-4.64;84.32;101631.91;3173803;22;20265;-74
2024/01/21 03:03:04;;;;;;;82.20;35.23;;;;;;;-4.64;84.15;101630.25;3173942;22;20254;-76
2024/01/21 03:04:18;;;;;;;83.33;37.17;;;;;;;-4.63;84.47;101638.75;3173188;22;20272;-75
2024/01/21 03:05:31;;;;;;;82.27;37.23;;;;;;;-4.64;84.17;101642.09;3174110;22;20030;-75
2024/01/21 03:06:46;;;;;;;76.17;36.70;;;;;;;-4.63;84.51;101643.84;3173521;22;20337;-76
2024/01/21 03:07:59;;;;;;;87.07;35.23;;;;;;;-4.63;84.17;101632.00;3173715;22;20016;-75
2024/01/21 03:09:14;;;;;;;96.27;36.57;;;;;;;-4.63;84.40;101643.84;3173972;22;20261;-75
2024/01/21 03:10:27;;;;;;;83.00;34.37;;;;;;;-4.74;83.84;101632.06;3174108;22;20023;-75
2024/01/21 03:11:43;;;;;;;80.30;33.33;;;;;;;-4.86;84.20;101637.19;3172990;22;20374;-74
2024/01/21 03:12:56;;;;;;;80.97;37.03;;;;;;;-4.89;84.29;101635.31;3173411;22;20023;-75
2024/01/21 03:14:11;;;;;;;87.33;34.37;;;;;;;-4.91;84.39;101635.97;3173550;22;20340;-75
2024/01/21 03:15:24;;;;;;;79.57;35.37;;;;;;;-4.90;84.17;101636.09;3174182;22;20027;-76
2024/01/21 03:16:39;;;;;;;72.80;31.57;;;;;;;-4.89;84.27;101639.53;3173086;22;20250;-75
2024/01/21 03:17:52;;;;;;;82.73;34.70;;;;;;;-4.86;84.29;101632.97;3174009;22;20024;-75
2024/01/21 03:19:06;;;;;;;84.60;33.57;;;;;;;-4.84;84.24;101633.09;3174264;22;20272;-75
2024/01/21 03:20:20;;;;;;;82.10;35.60;;;;;;;-4.82;84.13;101626.44;3173476;22;20015;-75
2024/01/21 03:21:34;;;;;;;82.57;36.67;;;;;;;-4.82;84.23;101627.31;3174394;22;20262;-75
2024/01/21 03:22:48;;;;;;;91.33;34.63;;;;;;;-4.79;84.40;101620.69;3174049;22;20023;-75
2024/01/21 03:24:02;;;;;;;84.00;34.67;;;;;;;-4.80;84.70;101611.25;3173459;22;20246;-75
2024/01/21 03:25:15;;;;;;;84.43;35.57;;;;;;;-4.82;84.33;101616.25;3174185;22;20031;-75
2024/01/21 03:26:30;;;;;;;68.60;31.67;;;;;;;-4.85;84.44;101614.38;3173418;22;20261;-75
2024/01/21 03:27:45;;;;;;;73.87;31.97;;;;;;;-4.90;84.19;101610.63;3173504;22;20020;-75
2024/01/21 03:28:59;;;;;;;72.50;33.40;;;;;;;-4.89;84.49;101606.44;3173915;22;20268;-75
2024/01/21 03:30:13;;;;;;;88.93;37.87;;;;;;;-4.88;84.68;101598.91;3173443;22;20253;-75
2024/01/21 03:31:28;;;;;;;76.83;34.60;;;;;;;-4.86;84.07;101604.97;3173994;22;20578;-76
2024/01/21 03:32:41;;;;;;;79.07;32.97;;;;;;;-4.85;84.35;101609.28;3173403;22;20067;-76
2024/01/21 03:33:55;;;;;;;71.50;33.70;;;;;;;-4.85;84.54;101596.56;3174030;22;20261;-75
2024/01/21 03:35:09;;;;;;;80.87;35.20;;;;;;;-4.82;84.54;101603.53;3173988;22;20323;-75
2024/01/21 03:36:23;;;;;;;80.43;33.10;;;;;;;-4.85;84.35;101606.75;3173203;22;20256;-75
2024/01/21 03:37:38;;;;;;;80.60;31.13;;;;;;;-4.88;84.28;101605.63;3173548;22;20027;-75
2024/01/21 03:38:53;;;;;;;78.63;31.60;;;;;;;-4.92;84.30;101608.75;3174119;22;20295;-75
2024/01/21 03:40:07;;;;;;;90.07;33.93;;;;;;;-4.93;84.47;101607.88;3173365;22;20246;-75
2024/01/21 03:41:21;;;;;;;77.73;29.47;;;;;;;-4.95;84.35;101609.44;3174136;22;20300;-75
2024/01/21 03:42:35;;;;;;;81.97;31.47;;;;;;;-4.99;84.19;101601.47;3173849;22;20031;-76
2024/01/21 03:43:50;;;;;;;77.30;34.60;;;;;;;-5.04;84.01;101599.47;3173175;22;20578;-75
2024/01/21 03:45:05;;;;;;;91.77;35.30;;;;;;;-5.01;83.96;101606.44;3174089;22;20030;-75
2024/01/21 03:46:19;;;;;;;80.47;31.70;;;;;;;-5.05;83.90;101605.38;3173820;22;20341;-75
2024/01/21 03:47:33;;;;;;;115.57;35.93;;;;;;;-5.09;83.74;101610.13;3173256;22;20272;-75
2024/01/21 03:48:47;;;;;;;68.83;32.37;;;;;;;-5.11;83.82;101602.41;3173211;22;20250;-75
2024/01/21 03:50:01;;;;;;;82.87;33.77;;;;;;;-5.12;83.86;101592.09;3174168;22;20015;-75
2024/01/21 03:51:15;;;;;;;92.57;34.77;;;;;;;-5.12;83.96;101587.00;3173972;22;20340;-74
2024/01/21 03:52:28;;;;;;;76.63;34.00;;;;;;;-5.13;84.16;101588.69;3173030;22;20027;-75
2024/01/21 03:53:43;;;;;;;65.43;30.73;;;;;;;-5.14;84.07;101583.47;3173491;22;20265;-74
2024/01/21 03:54:57;;;;;;;84.93;35.80;;;;;;;-5.12;84.35;101579.38;3173886;22;20023;-74
2024/01/21 03:56:17;;;;;;;79.10;30.40;;;;;;;-5.11;84.02;101587.13;3173135;22;20246;-74
2024/01/21 03:57:30;;;;;;;78.77;33.97;;;;;;;-5.13;84.17;101580.16;3173274;22;20069;-75
2024/01/21 03:58:45;;;;;;;94.17;31.63;;;;;;;-5.15;83.98;101574.09;3173886;22;20261;-75
2024/01/21 04:00:00;;;;;;;81.77;32.90;;;;;;;-5.20;84.31;101581.38;3173311;22;20026;-75
2024/01/21 04:01:14;;;;;;;78.77;31.97;;;;;;;-5.23;84.18;101580.31;3174051;22;20268;-75
2024/01/21 04:02:29;;;;;;;80.00;33.93;;;;;;;-5.24;84.25;101569.25;3173854;22;20254;-74
2024/01/21 04:03:44;;;;;;;78.27;32.93;;;;;;;-5.23;84.25;101570.13;3172407;22;20297;-75
2024/01/21 04:04:57;;;;;;;72.73;32.03;;;;;;;-5.21;83.87;101583.81;3173632;22;20253;-74
2024/01/21 04:06:12;;;;;;;79.70;33.27;;;;;;;-5.21;84.38;101576.19;3173810;22;20272;-74
2024/01/21 04:07:25;;;;;;;79.03;31.83;;;;;;;-5.19;84.01;101582.28;3173428;22;20023;-75
2024/01/21 04:08:39;;;;;;;86.70;33.13;;;;;;;-5.18;83.98;101571.34;3173246;22;20245;-74
2024/01/21 04:09:53;;;;;;;98.70;30.97;;;;;;;-5.22;84.17;101574.44;3173548;22;20031;-74
2024/01/21 04:11:07;;;;;;;94.33;34.23;;;;;;;-5.26;84.23;101581.84;3173843;22;20261;-75
2024/01/21 04:12:21;;;;;;;72.73;31.60;;;;;;;-5.26;83.93;101573.34;3173396;22;20027;-75
2024/01/21 04:13:35;;;;;;;74.33;30.47;;;;;;;-5.27;84.33;101576.66;3173877;22;20740;-75
2024/01/21 04:14:48;;;;;;;66.97;28.40;;;;;;;-5.29;84.20;101583.31;3173852;22;20023;-74
2024/01/21 04:16:05;;;;;;;70.63;29.07;;;;;;;-5.31;84.07;101574.69;3173049;22;20246;-75
2024/01/21 04:17:19;;;;;;;70.23;29.63;;;;;;;-5.34;84.17;101582.09;3173487;22;20030;-74
2024/01/21 04:18:33;;;;;;;69.70;33.83;;;;;;;-5.35;84.16;101585.41;3173333;22;20261;-75
2024/01/21 04:19:47;;;;;;;75.93;32.73;;;;;;;-5.35;84.28;101581.19;3173164;22;20250;-75
2024/01/21 04:21:01;;;;;;;67.80;30.33;;;;;;;-5.34;83.85;101588.06;3173555;22;20770;-75
2024/01/21 04:22:16;;;;;;;70.80;32.30;;;;;;;-5.32;84.09;101591.63;3173066;22;20023;-75
2024/01/21 04:23:30;;;;;;;65.97;32.07;;;;;;;-5.29;84.18;101596.91;3173695;22;20272;-75
2024/01/21 04:24:44;;;;;;;72.83;33.23;;;;;;;-5.27;84.34;101595.38;3173010;22;20280;-75
2024/01/21 04:25:58;;;;;;;68.43;31.13;;;;;;;-5.23;84.50;101599.00;3173836;22;20753;-75
2024/01/21 04:27:12;;;;;;;76.03;29.73;;;;;;;-5.21;84.16;101604.16;3173001;22;20019;-75
2024/01/21 04:28:26;;;;;;;106.03;35.57;;;;;;;-5.21;84.08;101604.16;3172961;22;20249;-75
2024/01/21 04:29:39;;;;;;;79.20;34.77;;;;;;;-5.20;84.28;101603.41;3173512;22;20026;-75
2024/01/21 04:30:54;;;;;;;76.20;30.00;;;;;;;-5.19;83.95;101606.06;3173559;22;20266;-74
2024/01/21 04:32:09;;;;;;;71.17;30.83;;;;;;;-5.16;84.10;101605.38;3172761;22;20358;-75
2024/01/21 04:33:23;;;;;;;64.07;35.60;;;;;;;-5.15;84.43;101602.94;3173490;22;20262;-75
2024/01/21 04:34:36;;;;;;;78.07;34.40;;;;;;;-5.12;84.47;101609.91;3173632;22;20253;-75
2024/01/21 04:35:51;;;;;;;74.13;32.17;;;;;;;-5.09;83.97;101605.03;3172879;22;20262;-75
2024/01/21 04:37:06;;;;;;;76.00;30.27;;;;;;;-5.08;84.43;101602.63;3173188;22;20073;-75
2024/01/21 04:38:21;;;;;;;79.83;30.17;;;;;;;-5.05;84.06;101607.03;3173360;22;20260;-75
2024/01/21 04:39:35;;;;;;;71.33;32.10;;;;;;;-5.05;84.16;101599.41;3173763;22;20257;-75
2024/01/21 04:40:49;;;;;;;74.83;31.63;;;;;;;-5.08;83.86;101597.53;3172644;22;20250;-75
2024/01/21 04:42:04;;;;;;;70.63;28.30;;;;;;;-5.12;83.81;101600.63;3173054;22;20261;-75
2024/01/21 04:43:17;;;;;;;63.10;32.53;;;;;;;-5.16;84.06;101595.19;3173609;22;20473;-75
2024/01/21 04:44:31;;;;;;;76.70;33.00;;;;;;;-5.18;84.01;101609.50;3172609;22;20249;-75
2024/01/21 04:45:45;;;;;;;75.37;32.50;;;;;;;-5.21;84.17;101610.19;3173534;22;20030;-74
2024/01/21 04:46:59;;;;;;;68.00;29.30;;;;;;;-5.20;84.23;101611.94;3173415;22;20753;-75
2024/01/21 04:48:14;;;;;;;83.10;33.20;;;;;;;-5.21;84.11;101610.19;3172843;22;20019;-75
2024/01/21 04:49:28;;;;;;;73.07;31.47;;;;;;;-5.19;84.18;101607.72;3173589;22;20811;-75
2024/01/21 04:50:42;;;;;;;63.20;29.63;;;;;;;-5.19;83.89;101613.69;3173557;22;20261;-76
2024/01/21 04:51:56;;;;;;;72.63;34.67;;;;;;;-5.20;83.82;101600.88;3173315;22;20238;-75
2024/01/21 04:53:10;;;;;;;57.40;28.77;;;;;;;-5.21;84.23;101609.25;3173813;22;20023;-75
2024/01/21 04:54:24;;;;;;;87.07;33.70;;;;;;;-5.23;83.87;101615.94;3173638;22;20262;-75
2024/01/21 04:55:37;;;;;;;73.00;31.07;;;;;;;-5.28;83.70;101615.59;3172759;22;20346;-75
2024/01/21 04:56:52;;;;;;;61.60;29.70;;;;;;;-5.32;83.59;101621.25;3173170;22;20267;-75
2024/01/21 04:58:05;;;;;;;75.43;32.27;;;;;;;-5.32;83.97;101613.59;3173181;22;20030;-74
2024/01/21 04:59:20;;;;;;;72.93;31.40;;;;;;;-5.32;84.07;101627.25;3173577;22;20267;-75
2024/01/21 05:00:33;;;;;;;87.03;34.20;;;;;;;-5.35;83.35;101621.91;3172870;22;20358;-75
2024/01/21 05:01:49;;;;;;;71.67;32.73;;;;;;;-5.38;83.83;101623.34;3173715;22;20272;-75
2024/01/21 05:03:03;;;;;;;136.47;38.03;;;;;;;-5.41;83.61;101625.69;3173450;22;20545;-75
2024/01/21 05:04:18;;;;;;;80.97;32.90;;;;;;;-5.45;83.58;101619.47;3172754;22;20250;-75
2024/01/21 05:05:33;;;;;;;74.97;34.50;;;;;;;-5.46;83.59;101615.19;3173562;22;20038;-75
2024/01/21 05:06:47;;;;;;;77.37;30.37;;;;;;;-5.46;83.59;101616.84;3173148;22;20258;-74
2024/01/21 05:08:01;;;;;;;72.90;30.93;;;;;;;-5.48;84.01;101622.69;3173049;22;20245;-75
2024/01/21 05:09:15;;;;;;;70.80;32.43;;;;;;;-5.49;83.86;101615.84;3173786;22;20022;-76
2024/01/21 05:10:29;;;;;;;80.53;31.93;;;;;;;-5.48;83.84;101614.19;3173446;22;20265;-75
2024/01/21 05:11:42;;;;;;;94.57;33.10;;;;;;;-5.52;83.87;101613.09;3172801;22;20027;-75
2024/01/21 05:12:57;;;;;;;72.20;31.57;;;;;;;-5.55;83.60;101617.06;3173387;22;20266;-75
2024/01/21 05:14:10;;;;;;;69.60;27.20;;;;;;;-5.56;83.84;101621.25;3173352;22;20023;-75
2024/01/21 05:15:25;;;;;;;81.33;31.77;;;;;;;-5.59;83.62;101620.16;3173268;22;20744;-75
2024/01/21 05:16:38;;;;;;;76.27;33.23;;;;;;;-5.63;83.64;101619.03;3172672;22;20015;-74
2024/01/21 05:17:56;;;;;;;70.87;33.33;;;;;;;-5.64;83.72;101618.97;3173345;22;20268;-74
2024/01/21 05:19:09;;;;;;;64.17;33.77;;;;;;;-5.65;83.70;101618.09;3173423;22;20030;-75
2024/01/21 05:20:25;;;;;;;70.67;30.97;;;;;;;-5.63;83.85;101615.63;3172849;22;20273;-75
2024/01/21 05:21:39;;;;;;;79.97;34.13;;;;;;;-5.61;84.01;101621.72;3173580;22;20042;-75
2024/01/21 05:22:54;;;;;;;72.83;31.53;;;;;;;-5.62;83.88;101615.75;3173603;22;20629;-74
2024/01/21 05:24:08;;;;;;;71.40;29.80;;;;;;;-5.67;83.60;101612.00;3172703;22;20042;-75
2024/01/21 05:25:22;;;;;;;71.77;31.10;;;;;;;-5.67;83.98;101611.13;3173624;22;20262;-75
2024/01/21 05:26:42;;;;;;;65.40;31.13;;;;;;;-5.67;83.93;101613.66;3173329;22;20019;-76
2024/01/21 05:27:56;;;;;;;67.47;29.00;;;;;;;-5.70;83.88;101606.69;3173011;22;20319;-74
2024/01/21 05:29:10;;;;;;;67.47;29.43;;;;;;;-5.71;83.67;101610.88;3173132;22;20604;-74
2024/01/21 05:30:24;;;;;;;69.80;30.27;;;;;;;-5.70;84.01;101611.78;3173570;22;20262;-74
2024/01/21 05:31:38;;;;;;;55.07;27.87;;;;;;;-5.68;84.03;101611.88;3172823;22;20451;-75
2024/01/21 05:32:52;;;;;;;72.07;29.63;;;;;;;-5.66;83.83;101607.78;3173483;22;20261;-75
2024/01/21 05:34:06;;;;;;;60.40;31.63;;;;;;;-5.61;84.06;101611.53;3173338;22;20019;-74
2024/01/21 05:35:22;;;;;;;71.10;34.63;;;;;;;-5.59;83.94;101604.91;3172817;22;20262;-75
2024/01/21 05:36:37;;;;;;;66.77;31.33;;;;;;;-5.59;84.10;101612.53;3172557;22;20076;-74